createdAt,value
2023-10-14T00:01:14.750Z,101363.58
2023-10-14T00:03:43.202Z,101357.77
2023-10-14T00:06:12.276Z,101356.57
2023-10-14T00:08:49.568Z,101349.05
2023-10-14T00:11:17.189Z,101348.39
2023-10-14T00:13:49.447Z,101343.60
2023-10-14T00:16:35.938Z,101345.96
2023-10-14T00:19:05.356Z,101347.87
2023-10-14T00:21:34.658Z,101349.89
2023-10-14T00:24:04.878Z,101347.16
2023-10-14T00:26:31.881Z,101351.50
2023-10-14T00:29:26.010Z,101348.69
2023-10-14T00:31:53.561Z,101343.70
2023-10-14T00:34:25.943Z,101340.63
2023-10-14T00:36:57.008Z,101335.42
2023-10-14T00:39:32.828Z,101334.22
2023-10-14T00:42:00.413Z,101336.14
2023-10-14T00:44:28.943Z,101332.67
2023-10-14T00:46:56.538Z,101333.48
2023-10-14T00:49:35.434Z,101328.45
2023-10-14T00:52:19.774Z,101323.42
2023-10-14T00:54:47.717Z,101317.38
2023-10-14T00:57:17.860Z,101320.86
2023-10-14T00:59:48.343Z,101311.97
2023-10-14T01:02:15.862Z,101308.41
2023-10-14T01:04:48.198Z,101311.98
2023-10-14T01:07:15.139Z,101307.66
2023-10-14T01:09:42.442Z,101304.73
2023-10-14T01:12:18.973Z,101306.39
2023-10-14T01:14:47.691Z,101304.99
2023-10-14T01:17:33.198Z,101301.17
2023-10-14T01:20:06.951Z,101300.64
2023-10-14T01:22:35.403Z,101297.04
2023-10-14T01:25:06.629Z,101295.85
2023-10-14T01:27:36.407Z,101293.57
2023-10-14T01:30:10.869Z,101290.05
2023-10-14T01:32:49.659Z,101288.17
2023-10-14T01:35:35.759Z,101285.20
2023-10-14T01:38:02.804Z,101283.35
2023-10-14T01:40:38.267Z,101281.33
2023-10-14T01:43:11.268Z,101278.54
2023-10-14T01:46:01.491Z,101280.13
2023-10-14T01:48:32.076Z,101279.83
2023-10-14T01:50:59.688Z,101281.94
2023-10-14T01:53:32.924Z,101277.39
2023-10-14T01:56:01.300Z,101277.30
2023-10-14T01:58:30.106Z,101273.70
2023-10-14T02:01:13.811Z,101271.52
2023-10-14T02:03:47.743Z,101273.37
2023-10-14T02:06:19.627Z,101272.55
2023-10-14T02:08:47.361Z,101269.20
2023-10-14T02:11:17.320Z,101269.31
2023-10-14T02:13:44.243Z,101270.86
2023-10-14T02:16:11.502Z,101270.17
2023-10-14T02:18:39.189Z,101270.63
2023-10-14T02:21:07.833Z,101269.84
2023-10-14T02:23:45.999Z,101265.70
2023-10-14T02:26:28.139Z,101269.04
2023-10-14T02:28:55.498Z,101268.85
2023-10-14T02:31:29.453Z,101269.73
2023-10-14T02:34:04.848Z,101268.68
2023-10-14T02:36:36.224Z,101268.78
2023-10-14T02:39:15.338Z,101266.40
2023-10-14T02:41:58.559Z,101260.45
2023-10-14T02:44:33.267Z,101257.41
2023-10-14T02:47:09.814Z,101258.89
2023-10-14T02:49:38.351Z,101256.11
2023-10-14T02:52:12.227Z,101254.52
2023-10-14T02:54:41.985Z,101250.58
2023-10-14T02:57:15.565Z,101248.38
2023-10-14T02:59:43.180Z,101251.81
2023-10-14T03:02:14.378Z,101250.77
2023-10-14T03:05:01.537Z,101246.57
2023-10-14T03:07:34.223Z,101245.06
2023-10-14T03:10:19.292Z,101243.11
2023-10-14T03:12:50.130Z,101242.67
2023-10-14T03:15:21.803Z,101241.35
2023-10-14T03:17:54.031Z,101238.88
2023-10-14T03:20:26.852Z,101237.63
2023-10-14T03:22:55.272Z,101231.66
2023-10-14T03:25:25.214Z,101231.13
2023-10-14T03:27:59.596Z,101227.28
2023-10-14T03:30:27.988Z,101228.90
2023-10-14T03:32:55.885Z,101228.55
2023-10-14T03:35:24.850Z,101228.71
2023-10-14T03:37:59.306Z,101227.88
2023-10-14T03:40:34.873Z,101226.48
2023-10-14T03:43:10.308Z,101223.40
2023-10-14T03:45:48.404Z,101221.60
2023-10-14T03:48:16.145Z,101213.83
2023-10-14T03:50:42.988Z,101213.23
2023-10-14T03:53:10.950Z,101213.86
2023-10-14T03:55:38.924Z,101214.80
2023-10-14T03:58:05.907Z,101213.73
2023-10-14T04:00:39.228Z,101213.96
2023-10-14T04:03:12.839Z,101212.00
2023-10-14T04:05:42.580Z,101210.61
2023-10-14T04:08:09.429Z,101209.76
2023-10-14T04:10:44.458Z,101209.23
2023-10-14T04:13:14.557Z,101214.27
2023-10-14T04:15:53.147Z,101213.20
2023-10-14T04:18:26.528Z,101212.21
2023-10-14T04:21:19.810Z,101212.73
2023-10-14T04:24:05.646Z,101214.48
2023-10-14T04:26:35.563Z,101218.50
2023-10-14T04:29:04.560Z,101220.54
2023-10-14T04:31:40.758Z,101218.39
2023-10-14T04:34:09.111Z,101220.40
2023-10-14T04:36:36.452Z,101215.52
2023-10-14T04:39:16.817Z,101214.77
2023-10-14T04:41:56.253Z,101213.90
2023-10-14T04:44:24.741Z,101218.15
2023-10-14T04:47:02.530Z,101218.16
2023-10-14T04:49:52.318Z,101219.34
2023-10-14T04:52:19.449Z,101224.17
2023-10-14T04:55:26.868Z,101224.58
2023-10-14T04:58:12.332Z,101228.16
2023-10-14T05:00:44.434Z,101231.30
2023-10-14T05:03:24.521Z,101230.52
2023-10-14T05:05:56.938Z,101239.77
2023-10-14T05:08:45.060Z,101239.18
2023-10-14T05:11:14.025Z,101237.88
2023-10-14T05:13:43.615Z,101241.37
2023-10-14T05:16:17.297Z,101245.29
2023-10-14T05:18:59.133Z,101247.45
2023-10-14T05:21:44.995Z,101247.52
2023-10-14T05:24:12.536Z,101248.98
2023-10-14T05:26:47.505Z,101243.48
2023-10-14T05:29:18.507Z,101248.22
2023-10-14T05:31:46.900Z,101253.27
2023-10-14T05:34:22.143Z,101261.01
2023-10-14T05:36:56.464Z,101259.00
2023-10-14T05:39:23.576Z,101266.23
2023-10-14T05:41:56.790Z,101269.60
2023-10-14T05:44:24.403Z,101270.61
2023-10-14T05:46:51.367Z,101269.28
2023-10-14T05:49:18.308Z,101270.67
2023-10-14T05:51:45.205Z,101269.61
2023-10-14T05:54:12.041Z,101275.41
2023-10-14T05:56:40.267Z,101280.34
2023-10-14T05:59:07.151Z,101280.66
2023-10-14T06:01:36.875Z,101278.34
2023-10-14T06:04:04.618Z,101281.67
2023-10-14T06:06:32.462Z,101276.37
2023-10-14T06:09:01.082Z,101276.00
2023-10-14T06:11:27.996Z,101274.48
2023-10-14T06:13:54.872Z,101270.71
2023-10-14T06:16:21.871Z,101270.60
2023-10-14T06:18:48.939Z,101267.89
2023-10-14T06:21:15.916Z,101264.89
2023-10-14T06:23:48.796Z,101258.30
2023-10-14T06:26:18.528Z,101249.24
2023-10-14T06:28:46.075Z,101248.38
2023-10-14T06:31:13.667Z,101245.15
2023-10-14T06:33:44.373Z,101245.35
2023-10-14T06:36:14.895Z,101245.54
2023-10-14T06:38:45.023Z,101245.92
2023-10-14T06:41:12.629Z,101242.89
2023-10-14T06:43:39.734Z,101245.67
2023-10-14T06:46:06.963Z,101239.52
2023-10-14T06:48:34.038Z,101239.48
2023-10-14T06:51:01.856Z,101238.70
2023-10-14T06:53:29.632Z,101234.88
2023-10-14T06:55:58.869Z,101223.90
2023-10-14T06:58:28.394Z,101226.52
2023-10-14T07:00:57.038Z,101228.86
2023-10-14T07:03:23.824Z,101229.41
2023-10-14T07:05:56.387Z,101231.60
2023-10-14T07:08:24.093Z,101228.46
2023-10-14T07:10:51.461Z,101230.59
2023-10-14T07:13:19.833Z,101229.31
2023-10-14T07:15:46.574Z,101224.31
2023-10-14T07:18:23.452Z,101226.23
2023-10-14T07:20:57.229Z,101222.67
2023-10-14T07:23:24.374Z,101221.40
2023-10-14T07:25:53.052Z,101220.73
2023-10-14T07:28:20.052Z,101221.05
2023-10-14T07:30:47.401Z,101220.14
2023-10-14T07:33:15.593Z,101221.92
2023-10-14T07:35:42.887Z,101221.91
2023-10-14T07:38:11.373Z,101214.78
2023-10-14T07:40:39.275Z,101208.05
2023-10-14T07:43:08.604Z,101205.07
2023-10-14T07:45:36.717Z,101204.95
2023-10-14T07:48:09.950Z,101203.13
2023-10-14T07:50:37.886Z,101198.64
2023-10-14T07:53:08.671Z,101202.52
2023-10-14T07:55:38.951Z,101203.52
2023-10-14T07:58:09.284Z,101200.87
2023-10-14T08:00:40.044Z,101198.74
2023-10-14T08:03:08.183Z,101194.25
2023-10-14T08:05:36.469Z,101195.86
2023-10-14T08:08:06.993Z,101191.73
2023-10-14T08:10:33.938Z,101193.98
2023-10-14T08:13:05.716Z,101190.77
2023-10-14T08:15:32.994Z,101185.52
2023-10-14T08:18:01.181Z,101187.07
2023-10-14T08:20:29.096Z,101177.55
2023-10-14T08:22:56.352Z,101176.52
2023-10-14T08:25:25.660Z,101173.94
2023-10-14T08:27:54.383Z,101172.89
2023-10-14T08:30:24.752Z,101170.59
2023-10-14T08:32:53.399Z,101169.38
2023-10-14T08:35:21.291Z,101168.73
2023-10-14T08:37:49.503Z,101163.97
2023-10-14T08:40:23.261Z,101161.32
2023-10-14T08:42:56.471Z,101159.92
2023-10-14T08:45:26.679Z,101161.24
2023-10-14T08:47:55.583Z,101159.27
2023-10-14T08:50:24.538Z,101156.25
2023-10-14T08:52:54.378Z,101154.57
2023-10-14T08:55:21.449Z,101147.27
2023-10-14T08:57:49.328Z,101145.73
2023-10-14T09:00:21.107Z,101141.11
2023-10-14T09:02:52.482Z,101141.94
2023-10-14T09:05:20.017Z,101139.40
2023-10-14T09:07:49.730Z,101134.83
2023-10-14T09:10:19.051Z,101129.96
2023-10-14T09:13:05.223Z,101127.48
2023-10-14T09:15:33.413Z,101123.42
2023-10-14T09:18:00.687Z,101118.45
2023-10-14T09:20:33.957Z,101120.66
2023-10-14T09:23:16.383Z,101117.42
2023-10-14T09:25:50.481Z,101117.24
2023-10-14T09:28:20.876Z,101110.34
2023-10-14T09:30:51.611Z,101103.02
2023-10-14T09:33:20.436Z,101100.48
2023-10-14T09:35:51.481Z,101093.71
2023-10-14T09:38:19.495Z,101089.40
2023-10-14T09:40:54.383Z,101085.59
2023-10-14T09:43:24.156Z,101078.00
2023-10-14T09:45:55.932Z,101071.80
2023-10-14T09:48:23.724Z,101070.33
2023-10-14T09:50:51.496Z,101067.26
2023-10-14T09:53:19.052Z,101064.46
2023-10-14T09:55:47.187Z,101057.48
2023-10-14T09:58:14.854Z,101049.06
2023-10-14T10:00:41.994Z,101042.63
2023-10-14T10:03:11.338Z,101039.63
2023-10-14T10:05:40.439Z,101026.43
2023-10-14T10:08:10.771Z,101025.73
2023-10-14T10:10:38.111Z,101020.91
2023-10-14T10:13:06.079Z,101015.11
2023-10-14T10:15:36.003Z,101009.52
2023-10-14T10:18:07.351Z,101007.91
2023-10-14T10:20:36.409Z,101001.39
2023-10-14T10:23:03.821Z,100991.78
2023-10-14T10:25:51.572Z,100985.15
2023-10-14T10:28:26.636Z,100981.27
2023-10-14T10:30:55.016Z,100978.85
2023-10-14T10:33:24.831Z,100973.40
2023-10-14T10:36:17.642Z,100968.31
2023-10-14T10:38:44.995Z,100964.59
2023-10-14T10:41:25.666Z,100958.75
2023-10-14T10:43:58.552Z,100956.98
2023-10-14T10:46:46.432Z,100949.16
2023-10-14T10:49:15.338Z,100949.15
2023-10-14T10:51:48.371Z,100947.37
2023-10-14T10:54:16.750Z,100944.32
2023-10-14T10:56:53.845Z,100937.27
2023-10-14T10:59:28.770Z,100934.30
2023-10-14T11:01:57.710Z,100932.73
2023-10-14T11:04:24.673Z,100930.08
2023-10-14T11:06:52.381Z,100922.79
2023-10-14T11:09:19.227Z,100920.50
2023-10-14T11:11:46.374Z,100916.59
2023-10-14T11:14:19.263Z,100906.54
2023-10-14T11:16:49.917Z,100905.36
2023-10-14T11:19:17.270Z,100901.57
2023-10-14T11:21:44.411Z,100900.80
2023-10-14T11:24:11.869Z,100892.15
2023-10-14T11:26:38.842Z,100892.61
2023-10-14T11:29:07.187Z,100888.94
2023-10-14T11:31:34.923Z,100883.95
2023-10-14T11:34:02.037Z,100880.98
2023-10-14T11:36:29.054Z,100875.90
2023-10-14T11:39:01.937Z,100876.30
2023-10-14T11:41:28.781Z,100871.95
2023-10-14T11:43:55.630Z,100865.64
2023-10-14T11:46:22.989Z,100863.58
2023-10-14T11:48:50.674Z,100862.35
2023-10-14T11:51:20.503Z,100858.30
2023-10-14T11:53:51.402Z,100853.36
2023-10-14T11:56:18.359Z,100854.73
2023-10-14T11:58:46.119Z,100850.36
2023-10-14T12:01:13.226Z,100846.91
2023-10-14T13:10:19.920Z,100746.45
2023-10-14T13:12:51.083Z,100740.85
2023-10-14T13:15:25.923Z,100736.34
2023-10-14T13:17:56.729Z,100736.84
2023-10-14T13:20:27.699Z,100734.73
2023-10-14T13:22:55.117Z,100730.14
2023-10-14T13:25:24.789Z,100731.36
2023-10-14T13:27:52.399Z,100728.51
2023-10-14T13:30:23.093Z,100728.13
2023-10-14T13:32:57.151Z,100719.17
2023-10-14T13:35:24.298Z,100716.66
2023-10-14T13:37:51.298Z,100715.98
2023-10-14T13:40:37.618Z,100716.85
2023-10-14T13:43:09.466Z,100711.45
2023-10-14T13:45:40.931Z,100708.79
2023-10-14T13:48:08.766Z,100706.57
2023-10-14T13:50:38.185Z,100703.82
2023-10-14T13:53:09.807Z,100704.08
2023-10-14T13:55:38.382Z,100702.12
2023-10-14T13:58:12.007Z,100697.11
2023-10-14T14:00:44.816Z,100695.13
2023-10-14T14:03:12.850Z,100693.91
2023-10-14T14:05:40.702Z,100689.05
2023-10-14T14:08:08.408Z,100685.13
2023-10-14T14:10:35.822Z,100684.02
2023-10-14T14:13:03.509Z,100682.64
2023-10-14T14:15:31.865Z,100678.34
2023-10-14T14:17:59.659Z,100677.48
2023-10-14T14:20:26.725Z,100675.69
2023-10-14T14:22:56.123Z,100677.44
2023-10-14T14:25:24.273Z,100674.00
2023-10-14T14:27:52.071Z,100670.08
2023-10-14T14:30:19.016Z,100668.83
2023-10-14T14:32:46.188Z,100670.80
2023-10-14T14:35:13.256Z,100669.23
2023-10-14T14:37:40.886Z,100666.26
2023-10-14T14:40:17.081Z,100666.56
2023-10-14T14:42:45.725Z,100659.97
2023-10-14T14:45:17.382Z,100653.91
2023-10-14T14:47:44.470Z,100649.34
2023-10-14T14:50:14.450Z,100652.45
2023-10-14T14:52:42.173Z,100652.02
2023-10-14T14:55:10.323Z,100651.02
2023-10-14T14:57:39.506Z,100652.50
2023-10-14T15:00:08.701Z,100649.11
2023-10-14T15:02:36.067Z,100650.75
2023-10-14T15:05:05.037Z,100649.89
2023-10-14T15:07:35.335Z,100648.50
2023-10-14T15:10:04.350Z,100643.11
2023-10-14T15:12:33.286Z,100640.20
2023-10-14T15:15:00.455Z,100638.73
2023-10-14T15:17:29.405Z,100637.83
2023-10-14T15:19:59.319Z,100636.06
2023-10-14T15:22:26.152Z,100632.45
2023-10-14T15:24:53.539Z,100636.12
2023-10-14T15:27:21.590Z,100635.77
2023-10-14T15:29:51.345Z,100632.27
2023-10-14T15:32:18.259Z,100629.20
2023-10-14T15:34:49.401Z,100626.41
2023-10-14T15:37:19.547Z,100627.20
2023-10-14T15:39:46.473Z,100627.64
2023-10-14T15:42:13.407Z,100630.63
2023-10-14T15:44:40.253Z,100627.63
2023-10-14T15:47:08.064Z,100628.47
2023-10-14T15:49:36.895Z,100628.73
2023-10-14T15:52:04.488Z,100627.62
2023-10-14T15:54:31.428Z,100628.80
2023-10-14T15:56:58.308Z,100627.00
2023-10-14T15:59:25.726Z,100632.08
2023-10-14T16:01:52.674Z,100630.66
2023-10-14T16:04:20.225Z,100634.21
2023-10-14T16:06:47.083Z,100636.06
2023-10-14T16:09:13.813Z,100633.22
2023-10-14T16:11:40.477Z,100631.28
2023-10-14T16:14:07.272Z,100628.58
2023-10-14T16:16:33.973Z,100627.48
2023-10-14T16:19:07.503Z,100624.38
2023-10-14T16:21:36.039Z,100622.69
2023-10-14T16:24:04.318Z,100624.36
2023-10-14T16:26:31.151Z,100625.20
2023-10-14T16:29:03.776Z,100625.11
2023-10-14T16:31:31.468Z,100625.85
2023-10-14T16:33:59.319Z,100624.23
2023-10-14T16:36:27.845Z,100620.08
2023-10-14T16:38:54.695Z,100624.73
2023-10-14T16:41:21.738Z,100621.91
2023-10-14T16:43:48.431Z,100623.00
2023-10-14T16:46:15.577Z,100623.85
2023-10-14T16:48:43.228Z,100622.29
2023-10-14T16:51:10.962Z,100618.20
2023-10-14T16:53:38.212Z,100614.25
2023-10-14T16:56:12.225Z,100615.71
2023-10-14T16:58:39.206Z,100609.75
2023-10-14T17:01:06.300Z,100611.95
2023-10-14T17:03:33.276Z,100613.45
2023-10-14T17:06:00.171Z,100611.31
2023-10-14T17:08:31.870Z,100616.95
2023-10-14T17:10:58.760Z,100614.23
2023-10-14T17:13:25.620Z,100610.24
2023-10-14T17:15:54.619Z,100609.59
2023-10-14T17:18:21.910Z,100608.59
2023-10-14T17:20:48.694Z,100610.27
2023-10-14T17:23:16.215Z,100608.51
2023-10-14T17:25:43.194Z,100605.73
2023-10-14T17:28:12.654Z,100608.52
2023-10-14T17:30:41.048Z,100610.30
2023-10-14T17:33:12.601Z,100606.33
2023-10-14T17:35:42.520Z,100605.06
2023-10-14T17:38:09.774Z,100601.88
2023-10-14T17:40:39.892Z,100602.55
2023-10-14T17:43:10.654Z,100603.48
2023-10-14T17:45:39.689Z,100604.45
2023-10-14T17:48:07.423Z,100602.26
2023-10-14T17:50:35.780Z,100602.63
2023-10-14T17:53:09.792Z,100602.09
2023-10-14T17:55:37.389Z,100600.59
2023-10-14T17:58:04.606Z,100599.38
2023-10-14T18:00:31.755Z,100600.48
2023-10-14T18:03:08.734Z,100598.89
2023-10-14T18:05:49.568Z,100597.98
2023-10-14T18:08:26.789Z,100595.13
2023-10-14T18:10:58.141Z,100593.65
2023-10-14T18:13:28.184Z,100594.47
2023-10-14T18:15:58.908Z,100595.38
2023-10-14T18:18:26.613Z,100595.30
2023-10-14T18:20:54.635Z,100597.95
2023-10-14T18:23:22.092Z,100596.59
2023-10-14T18:25:56.928Z,100595.50
2023-10-14T18:28:23.999Z,100594.32
2023-10-14T18:30:52.189Z,100592.44
2023-10-14T18:33:22.371Z,100592.91
2023-10-14T18:35:50.684Z,100593.88
2023-10-14T18:38:18.007Z,100593.89
2023-10-14T18:40:48.256Z,100596.53
2023-10-14T18:43:19.811Z,100593.73
2023-10-14T18:45:51.205Z,100594.45
2023-10-14T18:48:18.031Z,100598.01
2023-10-14T18:50:45.028Z,100596.78
2023-10-14T18:53:12.984Z,100595.11
2023-10-14T18:55:41.308Z,100597.90
2023-10-14T18:58:13.067Z,100596.63
2023-10-14T19:00:43.937Z,100599.98
2023-10-14T19:03:11.567Z,100599.98
2023-10-14T19:05:39.275Z,100598.05
2023-10-14T19:08:08.830Z,100599.27
2023-10-14T19:10:39.948Z,100600.90
2023-10-14T19:13:08.232Z,100600.98
2023-10-14T19:15:39.994Z,100597.57
2023-10-14T19:18:11.907Z,100598.20
2023-10-14T19:20:40.647Z,100592.61
2023-10-14T19:23:08.515Z,100593.31
2023-10-14T19:25:36.707Z,100591.36
2023-10-14T19:28:09.812Z,100587.01
2023-10-14T19:30:40.606Z,100591.35
2023-10-14T19:33:07.954Z,100586.09
2023-10-14T19:35:39.394Z,100588.39
2023-10-14T19:38:10.834Z,100586.83
2023-10-14T19:40:39.078Z,100584.21
2023-10-14T19:43:06.053Z,100585.81
2023-10-14T19:45:33.367Z,100586.80
2023-10-14T19:48:00.514Z,100584.34
2023-10-14T19:50:30.874Z,100583.18
2023-10-14T19:52:58.617Z,100585.70
2023-10-14T19:55:28.546Z,100581.46
2023-10-14T19:57:58.301Z,100580.49
2023-10-14T20:00:28.582Z,100573.48
2023-10-14T20:02:56.494Z,100569.32
2023-10-14T20:05:23.826Z,100569.91
2023-10-14T20:07:52.142Z,100572.83
2023-10-14T20:10:19.980Z,100572.26
2023-10-14T20:12:50.262Z,100573.53
2023-10-14T20:15:20.896Z,100569.69
2023-10-14T20:17:48.413Z,100570.86
2023-10-14T20:20:18.051Z,100571.83
2023-10-14T20:22:46.566Z,100574.84
2023-10-14T20:25:19.404Z,100576.83
2023-10-14T20:27:46.189Z,100572.35
2023-10-14T20:30:13.450Z,100573.41
2023-10-14T20:32:40.348Z,100570.09
2023-10-14T20:35:07.807Z,100570.31
2023-10-14T20:37:34.690Z,100568.77
2023-10-14T20:40:01.596Z,100567.75
2023-10-14T20:42:28.442Z,100571.52
2023-10-14T20:44:56.020Z,100571.81
2023-10-14T20:47:23.709Z,100568.05
2023-10-14T20:49:51.472Z,100567.58
2023-10-14T20:52:18.491Z,100569.43
2023-10-14T20:54:45.468Z,100568.15
2023-10-14T20:57:12.276Z,100572.55
2023-10-14T20:59:38.955Z,100567.93
2023-10-14T21:02:07.619Z,100568.05
2023-10-14T21:04:34.467Z,100564.61
2023-10-14T21:07:01.393Z,100560.11
2023-10-14T21:09:30.890Z,100561.87
2023-10-14T21:11:57.838Z,100561.94
2023-10-14T21:14:24.869Z,100559.53
2023-10-14T21:16:51.961Z,100555.91
2023-10-14T21:19:21.420Z,100558.75
2023-10-14T21:21:50.641Z,100559.59
2023-10-14T21:24:17.492Z,100554.95
2023-10-14T21:26:45.397Z,100554.18
2023-10-14T21:29:13.839Z,100552.06
2023-10-14T21:31:41.379Z,100551.55
2023-10-14T21:34:08.455Z,100551.70
2023-10-14T21:36:35.235Z,100546.84
2023-10-14T21:39:02.031Z,100548.02
2023-10-14T21:41:28.985Z,100549.37
2023-10-14T21:43:56.892Z,100544.98
2023-10-14T21:46:24.009Z,100542.39
2023-10-14T21:48:50.956Z,100541.21
2023-10-14T21:51:17.897Z,100542.49
2023-10-14T21:53:44.985Z,100541.48
2023-10-14T21:56:11.995Z,100543.90
2023-10-14T21:58:40.648Z,100544.85
2023-10-14T22:01:25.860Z,100541.77
2023-10-14T22:03:53.462Z,100540.67
2023-10-14T22:06:20.785Z,100538.05
2023-10-14T22:08:47.626Z,100536.19
2023-10-14T22:11:14.786Z,100535.41
2023-10-14T22:13:41.753Z,100533.87
2023-10-14T22:16:09.513Z,100528.85
2023-10-14T22:18:37.119Z,100525.46
2023-10-14T22:21:04.418Z,100522.97
2023-10-14T22:23:31.569Z,100519.54
2023-10-14T22:25:58.452Z,100518.65
2023-10-14T22:28:25.275Z,100515.77
2023-10-14T22:30:52.137Z,100519.47
2023-10-14T22:33:19.118Z,100512.93
2023-10-14T22:35:46.101Z,100515.48
2023-10-14T22:38:13.401Z,100512.91
2023-10-14T22:40:43.994Z,100514.37
2023-10-14T22:43:11.342Z,100511.44
2023-10-14T22:45:38.438Z,100511.55
2023-10-14T22:48:06.449Z,100507.83
2023-10-14T22:50:33.260Z,100506.61
2023-10-14T22:53:00.064Z,100507.15
2023-10-14T22:55:27.912Z,100505.50
2023-10-14T22:57:55.819Z,100505.98
2023-10-14T23:00:25.710Z,100507.23
2023-10-14T23:02:56.352Z,100504.60
2023-10-14T23:05:30.809Z,100506.27
2023-10-14T23:07:59.212Z,100502.73
2023-10-14T23:10:27.146Z,100501.14
2023-10-14T23:12:54.024Z,100497.63
2023-10-14T23:15:27.229Z,100500.36
2023-10-14T23:17:54.219Z,100500.71
2023-10-14T23:20:21.364Z,100499.94
2023-10-14T23:22:49.874Z,100497.82
2023-10-14T23:25:16.666Z,100490.58
2023-10-14T23:27:43.591Z,100484.05
2023-10-14T23:30:17.523Z,100482.50
2023-10-14T23:32:44.955Z,100481.73
2023-10-14T23:35:19.269Z,100483.89
2023-10-14T23:37:49.490Z,100476.73
2023-10-14T23:40:21.198Z,100473.60
2023-10-14T23:42:48.423Z,100470.05
2023-10-14T23:45:15.801Z,100467.00
2023-10-14T23:47:43.425Z,100462.49
2023-10-14T23:50:13.362Z,100462.79
2023-10-14T23:52:51.490Z,100461.50
2023-10-14T23:55:22.104Z,100459.73
2023-10-14T23:57:49.792Z,100457.35
